Time;durP1;ratioP1;P1;durP2;ratioP2;P2;SDS_P1;SDS_P2;PMS_P1;PMS_P2;Temp;Humidity;BMP_temperature;BMP_pressure;BME280_temperature;BME280_humidity;BME280_pressure;Samples;Min_cycle;Max_cycle;Signal;HPM_P1;HPM_P2
2021/03/29 00:01:58;;;;;;;29.48;19.62;;;;;;;5.78;81.27;101312.85;1775403;79;21066;-69
2021/03/29 00:04:27;;;;;;;24.90;17.75;;;;;;;5.79;81.29;101315.80;1727891;80;21384;-69
2021/03/29 00:06:57;;;;;;;27.40;17.95;;;;;;;5.77;81.25;101320.00;1756595;80;21173;-69
2021/03/29 00:09:25;;;;;;;27.70;18.12;;;;;;;5.76;81.29;101328.98;1739186;80;21220;-69
2021/03/29 00:11:56;;;;;;;26.02;18.37;;;;;;;5.78;81.30;101325.59;1732840;82;21138;-69
2021/03/29 00:14:26;;;;;;;20.72;15.65;;;;;;;5.78;81.28;101329.56;1765801;80;21220;-69
2021/03/29 00:16:56;;;;;;;23.77;18.00;;;;;;;5.76;81.30;101325.00;1759275;80;21600;-69
2021/03/29 00:19:30;;;;;;;22.85;15.93;;;;;;;5.75;81.27;101335.28;1768458;79;21216;-69
2021/03/29 00:22:00;;;;;;;23.42;16.37;;;;;;;5.76;81.28;101330.30;1762007;80;21831;-69
2021/03/29 00:24:28;;;;;;;24.77;17.27;;;;;;;5.79;81.26;101337.00;1763816;80;21198;-68
2021/03/29 00:26:58;;;;;;;25.05;17.45;;;;;;;5.80;81.23;101339.98;1768004;79;21224;-69
2021/03/29 00:29:26;;;;;;;20.30;14.85;;;;;;;5.80;81.20;101342.12;1768025;80;21209;-68
2021/03/29 00:31:57;;;;;;;22.32;17.05;;;;;;;5.82;81.14;101344.55;1766549;80;21140;-69
2021/03/29 00:34:25;;;;;;;22.40;16.52;;;;;;;5.82;81.06;101343.23;1772745;80;21600;-68
2021/03/29 00:36:54;;;;;;;22.67;15.68;;;;;;;5.81;80.99;101344.25;1777350;79;21458;-69
2021/03/29 00:39:24;;;;;;;22.67;16.12;;;;;;;5.81;80.92;101342.92;1734596;80;21223;-68
2021/03/29 00:41:52;;;;;;;22.27;16.15;;;;;;;5.80;80.87;101346.09;1764219;79;21189;-69
2021/03/29 00:44:20;;;;;;;22.75;16.40;;;;;;;5.79;80.82;101344.47;1770076;79;21248;-69
2021/03/29 00:46:47;;;;;;;20.17;15.75;;;;;;;5.79;80.83;101347.61;1775860;79;21198;-68
2021/03/29 00:49:18;;;;;;;23.30;16.48;;;;;;;5.78;80.82;101343.34;1767626;79;21189;-69
2021/03/29 00:51:47;;;;;;;22.85;16.73;;;;;;;5.78;80.82;101360.05;1738802;80;21481;-69
2021/03/29 00:54:15;;;;;;;21.77;15.48;;;;;;;5.76;80.79;101351.51;1772983;80;21389;-69
2021/03/29 00:56:45;;;;;;;22.32;16.42;;;;;;;5.76;80.76;101356.81;1719875;82;21181;-67
2021/03/29 00:59:14;;;;;;;22.87;16.75;;;;;;;5.78;80.72;101356.59;1764558;79;21263;-68
2021/03/29 01:01:48;;;;;;;22.77;15.40;;;;;;;5.80;80.66;101358.02;1738444;79;21065;-69
2021/03/29 01:04:15;;;;;;;27.85;15.93;;;;;;;5.81;80.57;101372.91;1771957;80;21212;-69
2021/03/29 01:06:49;;;;;;;24.52;15.50;;;;;;;5.81;80.52;101357.51;1741508;80;21199;-70
2021/03/29 01:09:24;;;;;;;27.40;18.25;;;;;;;5.79;80.43;101363.03;1772769;80;21252;-69
2021/03/29 01:11:59;;;;;;;28.07;18.25;;;;;;;5.79;80.37;101378.09;1769540;79;21117;-70
2021/03/29 01:14:39;;;;;;;23.12;16.07;;;;;;;5.79;80.27;101360.86;1758759;80;21152;-69
2021/03/29 01:17:24;;;;;;;22.58;15.18;;;;;;;5.79;80.24;101368.81;1768673;80;21152;-69
2021/03/29 01:20:07;;;;;;;22.85;16.23;;;;;;;5.79;80.18;101368.81;1770619;79;21485;-69
2021/03/29 01:22:40;;;;;;;;;;;;;;;5.80;80.13;101370.47;1776029;79;21212;-69
2021/03/29 01:25:30;;;;;;;24.77;16.45;;;;;;;5.79;80.09;101376.28;1764864;79;20207;-68
2021/03/29 01:28:03;;;;;;;23.10;15.93;;;;;;;5.78;80.05;101379.94;1768591;79;21513;-68
2021/03/29 01:30:34;;;;;;;23.95;16.27;;;;;;;5.77;80.01;101376.98;1758141;79;21121;-68
2021/03/29 01:33:04;;;;;;;20.85;15.25;;;;;;;5.75;80.01;101375.05;1773490;80;21195;-68
2021/03/29 01:35:35;;;;;;;24.92;17.45;;;;;;;5.74;80.00;101375.26;1774700;80;21283;-69
2021/03/29 01:38:04;;;;;;;21.87;15.72;;;;;;;5.72;79.98;101375.45;1765509;80;21077;-69
2021/03/29 01:40:38;;;;;;;23.40;16.40;;;;;;;5.70;79.99;101376.19;1772286;79;21275;-69
2021/03/29 01:43:09;;;;;;;24.12;16.42;;;;;;;5.68;80.03;101391.46;1753971;80;21102;-69
2021/03/29 01:45:37;;;;;;;23.45;16.55;;;;;;;5.67;80.04;101382.41;1756126;79;21516;-68
2021/03/29 01:48:08;;;;;;;22.37;15.90;;;;;;;5.65;80.06;101377.29;1766822;80;21208;-67
2021/03/29 01:50:39;;;;;;;23.47;16.50;;;;;;;5.64;80.09;101380.97;1758386;79;21168;-69
2021/03/29 01:53:08;;;;;;;22.85;16.00;;;;;;;5.64;80.13;101380.97;1768069;79;27036;-68
2021/03/29 01:55:37;;;;;;;23.95;15.75;;;;;;;5.64;80.16;101382.30;1771422;80;21617;-69
2021/03/29 01:58:07;;;;;;;21.95;14.93;;;;;;;5.65;80.17;101379.94;1769415;80;21619;-69
2021/03/29 02:00:43;;;;;;;19.62;13.70;;;;;;;5.65;80.20;101385.24;1767721;79;21180;-70
2021/03/29 02:03:11;;;;;;;21.23;15.45;;;;;;;5.62;80.22;101381.67;1766098;80;21192;-68
2021/03/29 02:05:40;;;;;;;25.27;16.70;;;;;;;5.60;80.26;101390.35;1774313;79;21169;-69
2021/03/29 02:08:08;;;;;;;24.40;16.77;;;;;;;5.59;80.27;101386.89;1729912;80;21158;-69
2021/03/29 02:10:39;;;;;;;23.95;16.05;;;;;;;5.58;80.28;101397.16;1772304;79;21179;-68
2021/03/29 02:13:19;;;;;;;24.95;17.60;;;;;;;5.57;80.29;101401.36;1766990;80;21140;-69
2021/03/29 02:15:55;;;;;;;23.25;15.93;;;;;;;5.55;80.31;101404.70;1768802;79;21173;-70
2021/03/29 02:18:32;;;;;;;22.32;15.75;;;;;;;5.53;80.39;101404.11;1769900;79;21085;-68
2021/03/29 02:21:03;;;;;;;21.37;14.15;;;;;;;5.53;80.46;101406.77;1763661;79;21141;-69
2021/03/29 02:23:31;;;;;;;22.15;14.50;;;;;;;5.53;80.50;101408.09;1768686;80;21376;-68
2021/03/29 02:26:04;;;;;;;21.17;14.83;;;;;;;5.52;80.53;101405.92;1778708;80;21143;-69
2021/03/29 02:28:33;;;;;;;21.93;14.75;;;;;;;5.54;80.56;101405.73;1767023;79;21058;-69
2021/03/29 02:31:01;;;;;;;21.37;14.33;;;;;;;5.56;80.61;101407.66;1754161;80;21192;-69
2021/03/29 02:33:29;;;;;;;23.35;16.15;;;;;;;5.57;80.70;101414.61;1770202;79;21121;-69
2021/03/29 02:35:56;;;;;;;23.38;15.48;;;;;;;5.58;80.76;101419.69;1767510;79;21386;-68
2021/03/29 02:38:25;;;;;;;21.52;15.15;;;;;;;5.59;80.77;101419.17;1746402;80;21197;-69
2021/03/29 02:40:54;;;;;;;25.20;17.10;;;;;;;5.60;80.79;101416.86;1759988;79;21251;-69
2021/03/29 02:43:22;;;;;;;22.60;15.63;;;;;;;5.61;80.83;101418.48;1771782;79;21621;-68
2021/03/29 02:46:05;;;;;;;23.73;15.88;;;;;;;5.59;80.85;101421.34;1751703;80;21081;-69
2021/03/29 02:48:41;;;;;;;23.65;15.83;;;;;;;5.60;80.86;101426.13;1774087;80;21503;-69
2021/03/29 02:51:12;;;;;;;28.17;17.87;;;;;;;5.60;80.85;101432.76;1769458;79;21205;-69
2021/03/29 02:53:48;;;;;;;32.33;21.73;;;;;;;5.60;80.88;101430.11;1765741;80;21192;-70
2021/03/29 02:56:19;;;;;;;30.88;20.30;;;;;;;5.59;80.83;101430.63;1743633;80;21132;-69
2021/03/29 02:58:55;;;;;;;;;;;;;;;5.62;80.82;101425.40;1780272;80;21121;-69
2021/03/29 03:01:27;;;;;;;26.33;17.23;;;;;;;5.61;80.78;101421.13;1774095;79;21370;-69
2021/03/29 03:03:55;;;;;;;26.10;17.17;;;;;;;5.61;80.79;101419.80;1766791;79;21173;-68
2021/03/29 03:06:26;;;;;;;26.77;16.70;;;;;;;5.61;80.77;101425.91;1757265;80;21904;-68
2021/03/29 03:08:54;;;;;;;27.20;16.65;;;;;;;5.61;80.81;101423.27;1776105;80;21152;-69
2021/03/29 03:11:22;;;;;;;23.20;16.80;;;;;;;5.62;80.82;101431.52;1773207;80;21200;-68
2021/03/29 03:13:51;;;;;;;30.85;20.48;;;;;;;5.63;80.82;101431.84;1769086;79;21384;-69
2021/03/29 03:16:21;;;;;;;30.62;20.10;;;;;;;5.63;80.78;101435.81;1735828;80;21612;-69
2021/03/29 03:18:50;;;;;;;35.13;22.77;;;;;;;5.62;80.78;101437.33;1768870;80;21172;-69
2021/03/29 03:21:19;;;;;;;34.92;23.95;;;;;;;5.65;80.77;101440.90;1772677;79;21217;-69
2021/03/29 03:23:56;;;;;;;30.15;20.05;;;;;;;5.65;80.79;101444.88;1763745;80;21184;-69
2021/03/29 03:26:26;;;;;;;27.87;19.17;;;;;;;5.65;80.85;101453.64;1773573;80;21375;-68
2021/03/29 03:28:54;;;;;;;32.38;21.07;;;;;;;5.65;80.79;101439.58;1761720;80;21208;-68
2021/03/29 03:31:23;;;;;;;30.08;20.45;;;;;;;5.67;80.76;101458.75;1776021;79;21166;-68
2021/03/29 03:33:51;;;;;;;29.63;18.70;;;;;;;5.67;80.74;101467.22;1768983;79;21229;-68
2021/03/29 03:36:23;;;;;;;27.73;18.92;;;;;;;5.65;80.80;101458.94;1756180;80;21064;-68
2021/03/29 03:38:51;;;;;;;27.07;19.48;;;;;;;5.64;80.85;101460.48;1777240;79;21376;-68
2021/03/29 03:41:30;;;;;;;25.97;17.75;;;;;;;5.64;80.87;101461.30;1758361;79;21235;-68
2021/03/29 03:43:59;;;;;;;32.83;21.85;;;;;;;5.62;80.92;101465.97;1767196;80;21688;-69
2021/03/29 03:46:36;;;;;;;30.37;20.92;;;;;;;5.62;80.93;101465.97;1768542;79;21123;-69
2021/03/29 03:49:20;;;;;;;31.93;20.45;;;;;;;5.62;80.89;101471.78;1738225;80;22635;-69
2021/03/29 03:51:49;;;;;;;28.12;18.55;;;;;;;5.61;80.87;101474.13;1753077;80;21212;-69
2021/03/29 03:54:20;;;;;;;27.62;18.12;;;;;;;5.62;80.90;101478.41;1769479;80;21117;-68
2021/03/29 03:56:48;;;;;;;34.30;21.97;;;;;;;5.61;80.94;101480.24;1765544;79;21153;-68
2021/03/29 03:59:16;;;;;;;33.23;20.15;;;;;;;5.62;80.99;101480.55;1722071;80;21153;-69
2021/03/29 04:02:06;;;;;;;34.48;22.98;;;;;;;5.63;80.97;101493.31;1756950;79;21164;-69
2021/03/29 04:04:35;;;;;;;32.88;21.93;;;;;;;5.61;80.92;101484.22;1773801;79;21676;-69
2021/03/29 04:07:04;;;;;;;30.40;19.60;;;;;;;5.60;80.91;101485.76;1767738;79;21223;-68
2021/03/29 04:09:41;;;;;;;33.80;21.52;;;;;;;5.61;80.85;101491.36;1768928;80;21073;-69
2021/03/29 04:12:10;;;;;;;32.50;21.02;;;;;;;5.59;80.84;101491.57;1773280;79;21184;-69
2021/03/29 04:14:38;;;;;;;31.23;19.17;;;;;;;5.59;80.87;101502.66;1771324;80;21168;-69
2021/03/29 04:17:06;;;;;;;29.67;19.07;;;;;;;5.59;80.84;101508.80;1766177;79;22296;-69
2021/03/29 04:19:36;;;;;;;30.75;19.32;;;;;;;5.60;80.85;101510.94;1760199;80;21250;-69
2021/03/29 04:22:04;;;;;;;30.80;20.65;;;;;;;5.59;80.82;101512.77;1771920;79;21302;-69
2021/03/29 04:24:33;;;;;;;30.50;19.15;;;;;;;5.60;80.82;101507.77;1766920;80;21279;-69
2021/03/29 04:27:01;;;;;;;27.93;18.00;;;;;;;5.62;80.79;101512.86;1762981;79;21156;-69
2021/03/29 04:29:30;;;;;;;28.52;17.12;;;;;;;5.59;80.74;101518.08;1774523;80;21289;-69
2021/03/29 04:31:58;;;;;;;27.90;18.25;;;;;;;5.60;80.71;101525.52;1762195;80;21226;-68
2021/03/29 04:34:27;;;;;;;28.95;18.62;;;;;;;5.58;80.65;101528.34;1762109;79;21165;-68
2021/03/29 04:36:55;;;;;;;33.30;20.57;;;;;;;5.58;80.65;101528.34;1759176;80;21600;-68
2021/03/29 04:39:23;;;;;;;31.20;20.45;;;;;;;5.58;80.66;101526.20;1759184;80;21180;-69
2021/03/29 04:41:51;;;;;;;28.05;17.77;;;;;;;5.59;80.67;101534.46;1764162;79;21318;-69
2021/03/29 04:44:25;;;;;;;28.20;17.65;;;;;;;5.61;80.61;101537.73;1764921;79;21215;-69
2021/03/29 04:46:54;;;;;;;31.97;19.48;;;;;;;5.61;80.61;101545.17;1762105;79;21588;-69
2021/03/29 04:49:22;;;;;;;27.30;17.87;;;;;;;5.60;80.60;101534.79;1775236;80;21121;-68
2021/03/29 04:51:51;;;;;;;30.10;18.90;;;;;;;5.62;80.62;101536.72;1709326;80;21124;-68
2021/03/29 04:54:19;;;;;;;32.03;19.80;;;;;;;5.62;80.68;101540.69;1771212;79;21877;-69
2021/03/29 04:56:48;;;;;;;31.62;18.55;;;;;;;5.66;80.69;101533.99;1759524;80;21203;-69
2021/03/29 04:59:15;;;;;;;29.05;19.23;;;;;;;5.66;80.62;101548.57;1769599;79;21121;-69
2021/03/29 05:01:44;;;;;;;29.15;16.25;;;;;;;5.63;80.55;101555.08;1762042;79;21649;-69
2021/03/29 05:04:12;;;;;;;26.00;16.35;;;;;;;5.63;80.49;101550.30;1758490;79;21160;-69
2021/03/29 05:06:41;;;;;;;26.73;17.23;;;;;;;5.61;80.48;101547.02;1763275;80;21279;-70
2021/03/29 05:09:10;;;;;;;27.77;17.00;;;;;;;5.59;80.42;101565.78;1763651;80;21085;-69
2021/03/29 05:11:52;;;;;;;28.67;16.93;;;;;;;5.57;80.46;101551.90;1759797;79;21268;-68
2021/03/29 05:14:17;;;;;;;27.75;16.48;;;;;;;5.55;80.49;101559.73;1767757;79;21164;-69
2021/03/29 05:16:47;;;;;;;24.50;15.13;;;;;;;5.56;80.57;101550.27;1770040;80;21272;-69
2021/03/29 05:19:17;;;;;;;24.15;15.95;;;;;;;5.58;80.54;101550.06;1767727;79;21274;-69
2021/03/29 05:21:45;;;;;;;25.62;16.75;;;;;;;5.62;80.50;101565.86;1768558;80;21215;-69
2021/03/29 05:24:13;;;;;;;23.10;15.83;;;;;;;5.65;80.37;101553.03;1766155;79;21168;-69
2021/03/29 05:26:43;;;;;;;23.50;15.90;;;;;;;5.69;80.25;101556.61;1765140;80;21099;-69
2021/03/29 05:29:11;;;;;;;25.50;16.93;;;;;;;5.71;80.16;101557.23;1770158;79;21053;-69
2021/03/29 05:31:41;;;;;;;27.58;17.00;;;;;;;5.74;80.10;101559.49;1774368;79;21365;-69
2021/03/29 05:34:11;;;;;;;21.30;14.25;;;;;;;5.76;79.98;101563.58;1775205;79;21175;-68
2021/03/29 05:36:40;;;;;;;25.30;15.90;;;;;;;5.79;79.92;101565.83;1767129;79;21757;-68
2021/03/29 05:39:11;;;;;;;24.95;16.52;;;;;;;5.80;79.83;101567.97;1779176;79;21161;-68
2021/03/29 05:41:39;;;;;;;25.50;16.52;;;;;;;5.83;79.76;101575.02;1776304;79;21215;-69
2021/03/29 05:44:09;;;;;;;26.20;17.12;;;;;;;5.84;79.70;101579.29;1782863;79;21329;-69
2021/03/29 05:46:41;;;;;;;32.17;20.88;;;;;;;5.85;79.57;101591.52;1771413;79;21612;-71
2021/03/29 05:49:09;;;;;;;26.05;16.77;;;;;;;5.87;79.47;101588.17;1760908;80;21553;-68
2021/03/29 05:51:38;;;;;;;25.27;15.95;;;;;;;5.90;79.37;101588.80;1771490;79;21185;-68
2021/03/29 05:54:07;;;;;;;21.23;14.95;;;;;;;5.90;79.27;101591.45;1770484;80;21156;-69
2021/03/29 05:56:38;;;;;;;23.50;15.98;;;;;;;5.86;79.15;101595.83;1767675;79;21374;-68
2021/03/29 06:01:49;;;;;;;23.25;15.48;;;;;;;5.87;79.14;101608.57;1770067;80;21109;-69
2021/03/29 06:04:47;;;;;;;21.95;14.78;;;;;;;5.91;79.10;101608.47;1747955;82;21228;-68
2021/03/29 06:07:22;;;;;;;29.70;20.15;;;;;;;5.96;79.04;101613.23;1770231;79;21223;-68
2021/03/29 06:09:52;;;;;;;27.30;17.50;;;;;;;6.00;78.82;101616.59;1774324;79;21385;-68
2021/03/29 06:12:22;;;;;;;27.22;17.73;;;;;;;6.03;78.72;101614.05;1757621;80;21280;-68
2021/03/29 06:15:01;;;;;;;26.60;18.05;;;;;;;6.03;78.61;101616.19;1764112;80;21181;-69
2021/03/29 06:17:29;;;;;;;28.05;18.95;;;;;;;6.05;78.53;101616.79;1765633;79;21206;-68
2021/03/29 06:19:59;;;;;;;31.10;21.20;;;;;;;6.07;78.43;101625.38;1768762;79;21161;-69
2021/03/29 06:22:38;;;;;;;32.90;23.00;;;;;;;6.09;78.37;101626.00;1763941;80;21366;-69
2021/03/29 06:25:15;;;;;;;32.38;22.90;;;;;;;6.10;78.27;101637.42;1771407;79;21183;-69
2021/03/29 06:30:50;;;;;;;35.85;26.90;;;;;;;6.22;78.01;101627.88;1828131;77;27801;-69
2021/03/29 06:33:19;;;;;;;35.88;24.32;;;;;;;6.24;77.76;101637.75;1802699;78;21258;-69
2021/03/29 06:35:55;;;;;;;39.18;27.90;;;;;;;6.28;77.61;101635.51;1802727;77;21365;-68
2021/03/29 06:38:33;;;;;;;41.13;28.10;;;;;;;6.30;77.44;101645.42;1817085;77;21291;-67
2021/03/29 06:41:04;;;;;;;41.45;28.15;;;;;;;6.30;77.30;101642.25;1821282;77;21060;-69
2021/03/29 06:43:37;;;;;;;42.10;28.73;;;;;;;6.32;77.11;101642.88;1822429;76;28484;-69
2021/03/29 06:46:11;;;;;;;39.53;27.70;;;;;;;6.33;76.94;101635.73;1816888;76;21167;-69
2021/03/29 06:48:51;;;;;;;39.50;27.90;;;;;;;6.40;76.88;101641.05;1794281;79;23435;-68
2021/03/29 06:51:26;;;;;;;38.88;26.87;;;;;;;6.37;76.73;101649.41;1778457;79;21098;-69
2021/03/29 06:54:08;;;;;;;36.58;25.40;;;;;;;6.38;76.67;101656.34;1767399;79;22272;-69
2021/03/29 06:56:47;;;;;;;37.25;25.80;;;;;;;6.40;76.41;101663.61;1776854;79;21208;-69
2021/03/29 06:59:22;;;;;;;42.50;29.80;;;;;;;6.40;76.31;101656.97;1774785;79;21223;-69
2021/03/29 07:01:51;;;;;;;40.95;28.85;;;;;;;6.44;76.18;101672.28;1780490;79;21173;-68
2021/03/29 07:04:26;;;;;;;42.43;29.45;;;;;;;6.46;76.04;101671.58;1771850;79;21577;-69
2021/03/29 07:06:55;;;;;;;40.17;27.62;;;;;;;6.48;75.96;101668.22;1765530;80;21205;-69
2021/03/29 07:09:23;;;;;;;37.53;27.30;;;;;;;6.52;75.70;101672.61;1713885;81;21217;-69
2021/03/29 07:11:52;;;;;;;45.23;30.12;;;;;;;6.54;75.57;101674.54;1729447;81;21161;-69
2021/03/29 07:14:21;;;;;;;45.70;31.35;;;;;;;6.58;75.42;101671.78;1683730;81;21221;-68
2021/03/29 07:16:50;;;;;;;42.38;29.85;;;;;;;6.64;75.29;101672.81;1716178;81;21207;-69
2021/03/29 07:19:18;;;;;;;40.40;27.67;;;;;;;6.69;75.08;101672.52;1718105;82;21372;-69
2021/03/29 07:21:47;;;;;;;41.48;27.37;;;;;;;6.71;74.81;101674.95;1716933;83;21150;-70
2021/03/29 07:24:15;;;;;;;37.78;27.32;;;;;;;6.68;74.69;101674.88;1673984;83;21157;-68
2021/03/29 07:26:58;;;;;;;37.33;26.42;;;;;;;6.68;74.72;101680.67;1709326;82;21223;-69
2021/03/29 07:29:31;;;;;;;38.08;25.72;;;;;;;6.67;74.81;101686.50;1719293;82;21219;-69
2021/03/29 07:32:06;;;;;;;34.98;22.75;;;;;;;6.69;74.73;101682.33;1717563;82;21480;-68
2021/03/29 07:34:49;;;;;;;31.75;20.32;;;;;;;6.70;74.80;101686.09;1709940;81;21626;-69
2021/03/29 07:37:44;;;;;;;30.20;20.95;;;;;;;6.74;74.73;101689.16;1714357;83;21233;-70
2021/03/29 07:40:20;;;;;;;33.55;21.55;;;;;;;6.73;74.71;101689.67;1711657;81;21232;-69
2021/03/29 07:42:51;;;;;;;29.18;20.35;;;;;;;6.78;74.65;101695.20;1717398;82;21068;-69
2021/03/29 07:45:24;;;;;;;32.15;21.93;;;;;;;6.86;74.37;101694.17;1742020;81;21376;-69
2021/03/29 07:47:58;;;;;;;35.83;23.62;;;;;;;6.90;74.21;101699.38;1723261;81;21162;-70
2021/03/29 07:50:34;;;;;;;28.38;20.95;;;;;;;6.95;74.09;101700.11;1726511;82;21189;-69
2021/03/29 07:55:56;;;;;;;31.13;21.17;;;;;;;7.06;73.76;101698.15;1832184;77;23090;-68
2021/03/29 07:58:26;;;;;;;32.38;22.10;;;;;;;7.07;73.53;101711.73;1800625;77;21159;-69
2021/03/29 08:03:47;;;;;;;28.03;19.20;;;;;;;7.28;73.05;101708.86;1830999;77;23302;-70
2021/03/29 08:06:41;;;;;;;27.35;19.57;;;;;;;7.36;72.99;101710.99;1809479;79;21111;-69
2021/03/29 08:09:16;;;;;;;29.67;20.48;;;;;;;7.51;72.52;101716.91;1792339;79;21391;-68
2021/03/29 08:11:57;;;;;;;31.75;21.37;;;;;;;7.63;72.09;101707.76;1800829;79;21193;-69
2021/03/29 08:14:34;;;;;;;32.13;22.87;;;;;;;7.72;71.48;101712.64;1786480;79;21207;-68
2021/03/29 08:17:47;;;;;;;30.37;22.53;;;;;;;7.89;70.93;101709.00;1826935;77;22715;-69
2021/03/29 08:20:19;;;;;;;37.93;25.00;;;;;;;7.97;70.69;101718.09;1791140;79;21154;-69
2021/03/29 08:23:32;;;;;;;27.40;19.48;;;;;;;8.09;70.16;101717.41;1805606;78;21362;-69
2021/03/29 08:26:15;;;;;;;33.63;23.95;;;;;;;8.14;69.48;101715.76;1810258;78;21180;-69
2021/03/29 08:29:13;;;;;;;39.98;27.30;;;;;;;8.14;69.27;101728.25;1809851;78;21203;-69
2021/03/29 08:32:23;;;;;;;34.50;25.20;;;;;;;8.20;69.12;101727.41;1792389;79;21183;-68
2021/03/29 08:35:13;;;;;;;34.48;24.52;;;;;;;8.23;68.91;101727.80;1806130;78;21591;-69
2021/03/29 08:37:47;;;;;;;39.42;26.85;;;;;;;8.26;68.75;101733.22;1778446;79;21365;-69
2021/03/29 08:40:26;;;;;;;37.75;27.65;;;;;;;8.35;68.57;101729.25;1800514;79;21210;-69
2021/03/29 08:43:02;;;;;;;40.35;29.15;;;;;;;8.41;68.13;101731.10;1804898;78;21186;-69
2021/03/29 08:45:30;;;;;;;42.35;29.37;;;;;;;8.47;67.89;101732.63;1800299;79;21591;-69
2021/03/29 08:48:02;;;;;;;39.33;26.02;;;;;;;8.47;67.85;101734.77;1792690;78;21643;-69
2021/03/29 08:50:39;;;;;;;38.08;27.20;;;;;;;8.49;67.97;101744.70;1790344;78;21533;-69
2021/03/29 08:53:10;;;;;;;35.38;24.60;;;;;;;8.45;67.99;101735.48;1806345;79;22224;-68
2021/03/29 08:55:40;;;;;;;39.60;27.95;;;;;;;8.43;68.08;101739.70;1804974;79;22193;-69
2021/03/29 08:58:09;;;;;;;41.33;28.45;;;;;;;8.43;68.24;101738.37;1800151;79;21610;-68
2021/03/29 09:00:39;;;;;;;37.45;26.15;;;;;;;8.45;68.20;101741.61;1803136;78;21172;-69
2021/03/29 09:03:20;;;;;;;33.40;23.42;;;;;;;8.49;68.27;101738.53;1800586;79;22394;-67
2021/03/29 09:05:48;;;;;;;39.15;26.52;;;;;;;8.57;68.27;101732.96;1805622;79;21645;-69
2021/03/29 09:08:16;;;;;;;38.55;26.45;;;;;;;8.69;68.03;101733.40;1802952;78;21183;-68
2021/03/29 09:10:47;;;;;;;42.13;29.05;;;;;;;8.79;67.80;101742.77;1799177;78;21170;-69
2021/03/29 09:13:16;;;;;;;36.03;26.82;;;;;;;8.86;67.56;101747.52;1793891;78;21175;-69
2021/03/29 09:15:49;;;;;;;41.02;28.67;;;;;;;8.81;67.30;101746.83;1794944;79;21364;-69
2021/03/29 09:18:17;;;;;;;44.90;30.45;;;;;;;8.77;67.33;101754.14;1790606;78;23884;-69
2021/03/29 09:20:49;;;;;;;40.80;28.85;;;;;;;8.79;67.25;101753.42;1794387;79;21190;-69
2021/03/29 09:23:28;;;;;;;42.20;29.60;;;;;;;8.82;67.06;101749.00;1799895;78;21662;-69
2021/03/29 09:25:52;;;;;;;36.75;25.90;;;;;;;8.87;67.03;101753.14;1785336;77;21198;-69
2021/03/29 09:31:07;;;;;;;37.13;25.75;;;;;;;8.98;66.54;101765.76;1795942;79;21155;-69
2021/03/29 09:33:36;;;;;;;36.40;24.70;;;;;;;8.93;66.42;101770.94;1801263;79;21606;-69
2021/03/29 09:36:14;;;;;;;34.33;24.98;;;;;;;8.96;66.52;101759.04;1803047;79;21465;-69
2021/03/29 09:38:48;;;;;;;36.10;23.52;;;;;;;9.08;66.28;101763.95;1792671;79;21138;-69
2021/03/29 09:41:18;;;;;;;36.77;25.68;;;;;;;9.19;66.16;101765.92;1802615;79;21223;-69
2021/03/29 09:43:48;;;;;;;41.50;28.02;;;;;;;9.31;65.45;101760.19;1802997;79;21244;-69
2021/03/29 09:46:16;;;;;;;39.42;26.40;;;;;;;9.35;65.11;101769.37;1798335;79;21704;-69
2021/03/29 09:48:44;;;;;;;41.30;27.32;;;;;;;9.38;64.82;101767.60;1783326;80;21206;-69
2021/03/29 09:51:23;;;;;;;38.10;25.32;;;;;;;9.38;64.63;101765.45;1769504;79;21194;-69
2021/03/29 09:53:51;;;;;;;32.93;23.87;;;;;;;9.39;64.44;101756.41;1803655;79;21361;-68
2021/03/29 09:56:30;;;;;;;37.80;27.00;;;;;;;9.46;64.46;101755.02;1795142;79;21547;-69
2021/03/29 09:58:58;;;;;;;37.58;26.90;;;;;;;9.55;64.12;101764.38;1783851;80;21142;-68
2021/03/29 10:01:27;;;;;;;37.65;26.37;;;;;;;9.61;63.83;101760.30;1790353;79;21925;-68
2021/03/29 10:04:00;;;;;;;35.00;24.95;;;;;;;9.71;63.46;101760.31;1805227;79;21206;-67
2021/03/29 10:06:29;;;;;;;30.45;22.62;;;;;;;9.83;63.35;101763.34;1805860;79;21361;-68
2021/03/29 10:09:03;;;;;;;36.13;26.82;;;;;;;9.99;62.76;101758.45;1795820;79;21182;-68
2021/03/29 10:11:48;;;;;;;35.65;24.75;;;;;;;10.17;62.79;101770.46;1798724;79;21606;-68
2021/03/29 10:14:17;;;;;;;34.75;26.12;;;;;;;10.39;62.04;101760.66;1805254;79;21143;-68
2021/03/29 10:16:51;;;;;;;34.60;25.27;;;;;;;10.52;61.42;101763.14;1812767;79;21124;-69
2021/03/29 10:19:20;;;;;;;36.45;25.82;;;;;;;10.53;60.78;101757.59;1792732;79;21370;-69
2021/03/29 10:22:18;;;;;;;36.13;25.17;;;;;;;10.53;60.72;101760.26;1789679;79;21253;-68
2021/03/29 10:25:15;;;;;;;30.85;22.95;;;;;;;10.56;60.51;101761.64;1800520;79;21191;-68
2021/03/29 10:27:50;;;;;;;35.38;24.65;;;;;;;10.61;60.38;101762.31;1789835;79;21128;-68
2021/03/29 10:30:26;;;;;;;31.93;23.10;;;;;;;10.59;60.28;101767.05;1792818;79;21175;-68
2021/03/29 10:32:58;;;;;;;33.45;24.70;;;;;;;10.62;60.12;101769.27;1799826;79;21151;-67
2021/03/29 10:35:29;;;;;;;38.33;25.72;;;;;;;10.62;60.09;101770.61;1797771;79;21158;-68
2021/03/29 10:38:03;;;;;;;35.13;25.50;;;;;;;10.61;59.63;101773.00;1801250;79;21132;-69
2021/03/29 10:40:33;;;;;;;33.98;24.07;;;;;;;10.59;59.73;101771.06;1795264;79;21590;-69
2021/03/29 10:43:01;;;;;;;36.70;26.27;;;;;;;10.60;59.66;101774.05;1792538;79;21052;-69
2021/03/29 10:45:29;;;;;;;36.98;25.40;;;;;;;10.59;59.68;101772.40;1806657;79;21240;-69
2021/03/29 10:47:57;;;;;;;38.57;26.93;;;;;;;10.58;59.69;101781.47;1792294;79;21496;-68
2021/03/29 10:50:26;;;;;;;34.27;26.37;;;;;;;10.56;59.75;101765.15;1798967;79;21624;-69
2021/03/29 10:52:54;;;;;;;37.10;25.57;;;;;;;10.61;59.64;101783.69;1808534;79;21853;-69
2021/03/29 10:55:24;;;;;;;35.87;26.07;;;;;;;10.68;59.51;101777.20;1808919;79;21167;-68
2021/03/29 10:57:52;;;;;;;35.93;26.70;;;;;;;10.67;59.14;101777.44;1793508;78;21591;-68
2021/03/29 11:00:25;;;;;;;33.63;24.80;;;;;;;10.63;59.51;101778.91;1804086;79;21698;-69
2021/03/29 11:02:53;;;;;;;36.85;26.90;;;;;;;10.69;59.58;101776.67;1802042;79;21839;-69
2021/03/29 11:05:23;;;;;;;38.07;27.77;;;;;;;10.83;59.51;101782.13;1804153;79;21202;-68
2021/03/29 11:07:52;;;;;;;37.57;27.07;;;;;;;11.02;59.09;101776.17;1814118;79;21407;-69
2021/03/29 11:10:22;;;;;;;34.13;25.77;;;;;;;11.14;58.59;101777.54;1789627;79;21896;-68
2021/03/29 11:12:50;;;;;;;34.83;27.00;;;;;;;11.22;58.19;101777.19;1795748;79;21327;-69
2021/03/29 11:15:19;;;;;;;37.20;26.53;;;;;;;11.25;58.15;101771.38;1802877;79;21421;-68
2021/03/29 11:17:48;;;;;;;42.00;29.17;;;;;;;11.28;57.83;101766.90;1811121;79;21750;-69
2021/03/29 11:20:18;;;;;;;39.33;28.20;;;;;;;11.26;57.72;101775.70;1789987;78;21282;-68
2021/03/29 11:22:47;;;;;;;36.43;26.00;;;;;;;11.17;57.60;101779.75;1792677;79;21345;-68
2021/03/29 11:25:15;;;;;;;42.27;28.13;;;;;;;11.16;57.84;101772.26;1807934;79;21330;-68
2021/03/29 11:27:44;;;;;;;33.27;24.27;;;;;;;11.24;58.04;101775.91;1803710;79;21249;-68
2021/03/29 11:30:14;;;;;;;35.77;26.67;;;;;;;11.45;57.95;101773.20;1788953;79;21492;-69
2021/03/29 11:32:43;;;;;;;41.73;29.63;;;;;;;11.73;57.72;101773.01;1792390;79;21424;-69
2021/03/29 11:35:16;;;;;;;38.03;28.43;;;;;;;11.98;56.99;101775.45;1804613;79;21344;-68
2021/03/29 11:37:44;;;;;;;38.97;29.17;;;;;;;12.11;56.19;101773.84;1810372;79;21320;-69
2021/03/29 11:40:13;;;;;;;37.67;27.57;;;;;;;12.16;55.64;101767.77;1792381;79;21410;-69
2021/03/29 11:42:43;;;;;;;33.53;24.87;;;;;;;12.13;55.44;101773.59;1791382;79;21443;-69
2021/03/29 11:45:13;;;;;;;40.27;27.50;;;;;;;12.02;54.68;101773.92;1800892;79;21289;-71
2021/03/29 11:47:42;;;;;;;36.83;27.10;;;;;;;11.83;55.33;101773.22;1813874;78;21345;-68
2021/03/29 11:50:13;;;;;;;37.47;26.67;;;;;;;11.77;55.32;101776.03;1802977;79;21825;-69
2021/03/29 11:52:44;;;;;;;36.70;26.90;;;;;;;11.72;55.57;101782.09;1803039;79;21381;-69
2021/03/29 11:55:12;;;;;;;36.73;27.47;;;;;;;11.75;55.83;101770.92;1795840;79;21420;-68